Regent's Park Spring Half Marathon (2 Hour Time-Limit) 14 04 2019 Results

Position First Name Last Name Gender Club Overall Time Category Gender Pos Net Time Categ Pos Action
1 Isaac Rothman Male Leamington C&AC 01:16:43 Male Senior 1 01:16:41 1 Claim
2 Jordan Mungovan Male Ranelagh Harriers 01:18:25 Male Senior 2 01:18:19 2 Claim
3 Charly Godefroy Male 01:19:14 Male Senior 3 01:19:11 3 Claim
4 Oliver Riley Male 01:19:47 Male Senior 4 01:19:45 4 Claim
5 Chris Payne Male Serpentine 01:19:48 Male Senior 5 01:19:45 5 Claim
6 Will Dawber Male 01:19:51 MV40 6 01:19:45 1 Claim
7 Mark Bridges Male Wimbledon Windmilers 01:20:00 MV40 7 01:19:59 2 Claim
8 Carlo De Male atletica centotorri pavia (Italy) 01:20:37 Male Senior 8 01:20:34 6 Claim
9 Edward Beddows Male 01:20:40 Male Senior 9 01:20:36 7 Claim
10 FADIE SHAMOON Male JPMorgan 01:21:07 Male Senior 10 01:21:01 8 Claim
11 Titus Thomson Male Ealing Eagles 01:21:27 Male Senior 11 01:21:24 9 Claim
12 Mo Foustok Male 01:21:37 Male Senior 12 01:21:35 10 Claim
13 Nathan Sayers Male 26.2RRC 01:23:06 Male Senior 13 01:22:54 11 Claim
14 Monty Gershon Male 01:23:27 MV50 14 01:23:25 1 Claim
15 Ricardo Agostinho Male Ealing Eagles Running Club 01:23:58 Male Senior 15 01:23:47 12 Claim
16 Charles Howorth Male Stonehaven Running Club 01:24:21 Male Senior 16 01:24:18 13 Claim
17 Peter Hearn Male Tynedale Harriers 01:25:04 MV50 17 01:25:01 2 Claim
18 Blair Wilson Male None 01:25:14 Male Senior 18 01:25:09 14 Claim
19 George Gillingwater Male Chiltern Harriers AC 01:25:36 Male Senior 19 01:25:32 15 Claim
20 Alan Phillips Male 01:26:21 MV40 20 01:26:18 3 Claim
21 Chris O'Sullivan Male 01:26:32 Male Senior 21 01:26:30 16 Claim
22 Simon Atkins Male Mornington Chasers 01:26:47 MV50 22 01:26:29 3 Claim
23 Adam Bernstein Male 01:26:52 Male Senior 23 01:26:41 17 Claim
24 Jessica Female 01:26:56 Female Senior 1 01:26:51 1 Claim
25 Alex Tomlinson Male 01:27:40 Male Senior 24 01:27:40 18 Claim
26 Oliver Morgan Male 01:27:49 Male Senior 25 01:27:49 19 Claim
27 George Hobhouse Male 01:28:25 Male Senior 26 01:28:11 20 Claim
28 Tao Mantaras Male 01:28:37 Male Senior 27 01:28:23 21 Claim
29 Will Brigham Male 01:28:40 Male Senior 28 01:28:25 22 Claim
30 Arnaud Delaeter Male Tri London 01:28:41 Male Senior 29 01:28:38 23 Claim
31 Matthew Male 01:28:52 Male Senior 30 01:28:31 24 Claim
32 Ed Burr Male 01:29:13 MV40 31 01:29:00 4 Claim
33 Joel Morgan Male 01:29:26 Male Senior 32 01:29:12 25 Claim
34 Mark Hokan Male 01:29:37 Male Senior 33 01:29:24 26 Claim
35 Sam Watson Male 01:29:43 Male Senior 34 01:29:39 27 Claim
36 Saveliy Burchinskiy Male 01:29:45 Male Senior 35 01:29:37 28 Claim
37 Alex Hess Male 01:30:15 Male Senior 36 01:29:46 29 Claim
38 Adam Hadidi Male 01:30:34 Male Senior 37 01:30:19 30 Claim
39 Connor Batty Male 01:30:40 Male Senior 38 01:30:37 31 Claim
40 Alejandro Rodriguez Male TriUM 01:30:40 Male Senior 39 01:30:35 32 Claim
41 Tarek Hraoui Male 01:30:56 Male Senior 40 01:30:38 33 Claim
42 Matt Donovan Male 01:31:02 Male Senior 41 01:30:54 34 Claim
43 James Voos Male London City Athletics 01:31:02 Male Senior 42 01:30:56 35 Claim
44 Utkarsh Sharma Male 01:31:06 Male Senior 43 01:30:46 36 Claim
45 Daniel Norton Male 01:31:06 Male Senior 44 01:31:06 37 Claim
46 Philip Rae Male 01:31:19 Male Senior 45 01:31:07 38 Claim
47 Robert Ratcliff Male 01:31:41 Male Senior 46 01:31:37 39 Claim
48 Kunal Oak Male 01:31:51 Male Senior 47 01:31:44 40 Claim
49 Alex Edmans Male 01:32:06 Male Senior 48 01:31:57 41 Claim
50 Chris Toppon Male 01:32:12 Male Senior 49 01:31:52 42 Claim
51 Jose Sanchez Male VPHTHAC 01:32:24 Male Senior 50 01:32:11 43 Claim
52 Dmitry Shaporenkov Male 01:32:36 Male Senior 51 01:32:01 44 Claim
53 Matthew Keyworth Male Havering '90 Joggers 01:32:48 Male Senior 52 01:32:36 45 Claim
54 Nina Female 01:32:54 Female Senior 2 01:32:37 2 Claim
55 Joey Tyson Male 01:33:05 Male Senior 53 01:32:34 46 Claim
56 Matthew Sarvesvaran Male 01:33:18 Male Senior 54 01:32:48 47 Claim
57 Charles Glass Male 01:33:20 Male Senior 55 01:32:50 48 Claim
58 James Screen Male London City Athletics Club 01:33:36 Male Senior 56 01:33:21 49 Claim
59 Lewis Male 01:33:42 Male Senior 57 01:33:02 50 Claim
60 Jake Fan Male 01:33:47 Male Senior 58 01:32:59 51 Claim
61 Ian Fairlamb Male 01:33:48 MV40 59 01:33:34 5 Claim
62 Paul Soulsby Male 01:33:48 MV50 60 01:33:42 4 Claim
63 Benjamin Seifert Male 01:34:02 MV40 61 01:33:53 6 Claim
64 Liam Reddington Male 01:34:02 Male Senior 62 01:33:47 52 Claim
65 Jordi Canals Male 01:34:16 Male Senior 63 01:33:59 53 Claim
66 Ruth Thomas Female 01:34:34 Female Senior 3 01:34:27 3 Claim
67 Victoria McArdle Female 01:34:35 Female Senior 4 01:34:20 4 Claim
68 Leo Ellis Male 01:34:47 Male Senior 64 01:34:13 54 Claim
69 Andrew Knapp Female 01:34:50 Female Senior 5 01:34:35 5 Claim
70 Nikki Boyde Female Northern AC ( IOM) 01:35:00 FV40 6 01:34:44 1 Claim
71 Terry Ayres Male 01:35:02 Male Senior 65 01:34:45 55 Claim
72 Ben Gibson Male 01:35:22 Male Senior 66 01:35:02 56 Claim
73 Kamran Male 01:35:33 Male Senior 67 01:35:16 57 Claim
74 Zoe Cuenoud Female 01:35:33 Female Senior 7 01:35:24 6 Claim
75 William Michaud Male 01:35:41 Male Senior 68 01:35:03 58 Claim
76 Alex Cuenca Male 01:35:42 Male Senior 69 01:35:37 59 Claim
77 Colin Munro Male London Frontrunners 01:35:49 MV40 70 01:35:19 7 Claim
78 Alex Nangler Male 01:35:59 Male Senior 71 01:35:50 60 Claim
79 Chris Westwood Male 01:36:02 Male Senior 72 01:35:41 61 Claim
80 Philip Moore Male 01:36:04 MV50 73 01:35:45 5 Claim
81 Rob Clements Male 01:36:07 Male Senior 74 01:35:06 62 Claim
82 Jayke Both Male 01:36:24 Male Senior 75 01:35:43 63 Claim
83 Richard Hall Male 01:36:24 Male Senior 76 01:35:39 64 Claim
84 Evangelos Ploumakis Male 01:36:29 Male Senior 77 01:36:21 65 Claim
85 Luca Rosa Male 01:36:43 Male Senior 78 01:36:32 66 Claim
86 Robert Astley Male 01:36:47 Male Senior 79 01:36:33 67 Claim
87 Dorian Henning Male 01:36:48 Male Senior 80 01:35:59 68 Claim
88 Alan Steeple Male Chorlton Runners 01:37:04 MV40 81 01:36:37 8 Claim
89 Miranda Frudd Female 01:37:19 Female Senior 8 01:37:14 7 Claim
90 Rupert Flowerdew Male 01:37:19 Male Senior 82 01:37:19 69 Claim
91 Graeme Jackson Male 01:37:35 Male Senior 83 01:37:12 70 Claim
92 Jeg Dudley Male 01:37:39 Male Senior 84 01:37:19 71 Claim
93 Theresa Yee Female 01:37:51 Female Senior 9 01:37:45 8 Claim
94 Nick Farrell Male 01:37:58 MV50 85 01:37:45 6 Claim
95 Adrian Joseph Male St. Albans Striders 01:38:06 Male Senior 86 01:37:40 72 Claim
96 Virginia Siliù Female VPHTHAC 01:38:24 Female Senior 10 01:38:14 9 Claim
97 Paul Grime Male 01:38:26 MV50 87 01:38:20 7 Claim
98 Samuel Watkin Male 01:38:29 Male Senior 88 01:37:46 73 Claim
99 Leah Templestein Female 01:38:38 Female Senior 11 01:38:15 10 Claim
100 Ashley Walker Female 01:38:42 Female Senior 12 01:38:17 11 Claim
101 Rhys Christie-Kelly Male 01:39:02 Male Senior 89 01:38:42 74 Claim
102 Ryan Heslop Male 01:39:10 Male Senior 90 01:38:57 75 Claim
103 Yener Konfino Male 01:39:22 Male Senior 91 01:38:43 76 Claim
104 Ashley Harwood Male 01:39:23 Male Senior 92 01:38:50 77 Claim
105 Vendela Gambill Female 01:39:32 Female Senior 13 01:39:21 12 Claim
106 David Pettitt Male 01:39:36 Male Senior 93 01:39:07 78 Claim
107 Chris Parkhill Male 01:39:49 MV40 94 01:39:20 9 Claim
108 Magda Bennett Female Reading road runners 01:39:55 FV40 14 01:39:38 2 Claim
109 Alice Kendall Female 01:40:03 Female Senior 15 01:39:15 13 Claim
110 Navpreet Singh Male 01:40:05 Male Senior 95 01:39:35 79 Claim
111 Pierpaolo Necchi Male 01:40:13 Male Senior 96 01:39:55 80 Claim
112 Antonio Job Male 01:40:16 Male Senior 97 01:40:16 81 Claim
113 Ben Ashton Male 01:40:16 Male Senior 98 01:39:22 82 Claim
114 Alasdair Lamb Male 01:40:19 Male Senior 99 01:39:39 83 Claim
115 Will Smith Male 01:40:44 Male Senior 100 01:40:11 84 Claim
116 Nicholas Wardle Male 01:40:50 MV40 101 01:40:16 10 Claim
117 Joseph Oakley Male 01:40:53 Male Senior 102 01:40:08 85 Claim
118 Beth Cambidge Female 01:40:54 Female Senior 16 01:40:06 14 Claim
119 Abhinav Anand Male 01:40:55 Male Senior 103 01:40:36 86 Claim
120 Nikita Stewart Male 01:41:00 Male Senior 104 01:40:23 87 Claim
121 Jack Lewis Male 01:41:10 Male Senior 105 01:40:46 88 Claim
122 Tom Lewis Male 01:41:16 Male Senior 106 01:40:54 89 Claim
123 Mark Green Male 01:41:22 MV40 107 01:40:46 11 Claim
124 Steven Jones Male 01:41:22 Male Senior 108 01:40:48 90 Claim
125 Nazar Efendiev Male 01:41:35 Male Senior 109 01:40:51 91 Claim
126 Harriet Shopland-reed Female 01:41:37 Female Senior 17 01:40:59 15 Claim
127 Wesley Ball Male 01:41:42 MV40 110 01:41:42 12 Claim
128 Joe Holdsworth Male 01:41:59 Male Senior 111 01:41:26 92 Claim
129 Gaby Parsons Female 01:42:07 Female Senior 18 01:41:17 16 Claim
130 Cameron Parsons Male 01:42:09 Male Senior 112 01:41:17 93 Claim
131 Alex Cooper Male 01:42:17 Male Senior 113 01:41:58 94 Claim
132 Andrew Roberts Male 01:42:20 Male Senior 114 01:42:13 95 Claim
133 Maxim Makhun Male 01:42:41 Male Senior 115 01:42:31 96 Claim
134 Chris McAvoy Male 01:42:57 Male Senior 116 01:42:13 97 Claim
135 Rupert Sealey Male 01:43:05 Male Senior 117 01:42:42 98 Claim
136 Laura Wilden Female 01:43:11 Female Senior 19 01:42:58 17 Claim
137 Michele Inversi Male 01:43:17 MV40 118 01:42:34 13 Claim
138 Nicholas Dash Male 01:43:22 Male Senior 119 01:42:40 99 Claim
139 Guillermo Fernandez Male 01:43:25 Male Senior 120 01:43:07 100 Claim
140 Laura Coll Female 01:43:26 Female Senior 20 01:42:55 18 Claim
141 Jeremy Feldman Male 01:43:28 Male Senior 121 01:42:43 101 Claim
142 Dennis Connolly Male 01:43:39 MV40 122 01:42:49 14 Claim
143 Matthieu Teachout Male 01:43:49 Male Senior 123 01:43:00 102 Claim
144 Yogaraj Tharmanayagam Male 01:43:59 Male Senior 124 01:43:17 103 Claim
145 Theo Ogier Male 01:44:00 Male Senior 125 01:43:14 104 Claim
146 Andrew Feldman Male 01:44:02 Male Senior 126 01:43:16 105 Claim
147 Matthew Fletcher Male 01:44:15 Male Senior 127 01:43:36 106 Claim
148 Wale Omiyale Male 01:44:17 MV50 128 01:43:30 8 Claim
149 Ana Robert Female 01:44:17 Female Senior 21 01:44:02 19 Claim
150 George Bettley Male 01:44:19 Male Senior 129 01:43:34 107 Claim
151 Alex McIntyre Female 01:44:20 Female Senior 22 01:44:20 20 Claim
152 Riccardo Pietri Male 01:44:26 Male Senior 130 01:43:57 108 Claim
153 Luca Gallone Male 01:44:27 Male Senior 131 01:43:34 109 Claim
154 Callum Male 01:44:33 Male Senior 132 01:44:14 110 Claim
155 Arjen Leemburg Male 01:44:45 Male Senior 133 01:44:05 111 Claim
156 Judit Forgacs Female 01:44:51 Female Senior 23 01:44:43 21 Claim
157 Tom Nixon Male 01:44:53 Male Senior 134 01:40:09 112 Claim
158 Colin Campbell Male 01:44:54 Male Senior 135 01:44:04 113 Claim
159 Julian Bennet Male 01:44:57 Male Senior 136 01:44:19 114 Claim
160 Jose Sarria Male 01:45:21 MV50 137 01:44:41 9 Claim
161 Jacob Hayes Male 01:45:26 Male Senior 138 01:45:18 115 Claim
162 Noah Von Male 01:45:32 Male Senior 139 01:44:46 116 Claim
163 Sabina Postolache Female Adidas Runners 01:45:33 Female Senior 24 01:45:14 22 Claim
164 Paul Summersgill Male 01:45:35 Male Senior 140 01:44:49 117 Claim
165 Batiste Male 01:45:37 Male Senior 141 01:44:51 118 Claim
166 Annalan Navaratnam Male 01:45:50 Male Senior 142 01:45:19 119 Claim
167 Jarrod Bischoff Male 01:45:50 Male Senior 143 01:45:24 120 Claim
168 Nick Screen Male London City Athletics Club 01:45:51 Male Senior 144 01:45:30 121 Claim
169 Robert Kettell Male 01:45:56 Male Senior 145 01:45:34 122 Claim
170 Peter Tarr Male 01:45:57 Male Senior 146 01:45:25 123 Claim
171 Philip Lowrey Male 01:45:58 Male Senior 147 01:45:40 124 Claim
172 Edward Russell Male 01:46:07 Male Senior 148 01:45:37 125 Claim
173 ADRIEN ISRAEL Male 01:46:10 Male Senior 149 01:45:38 126 Claim
174 Joel Fuentes Male 01:46:12 Male Senior 150 01:45:18 127 Claim
175 David Jenkin Male 01:46:24 Male Senior 151 01:45:39 128 Claim
176 Jamie Brannigan Male 01:46:56 MV40 152 01:46:27 15 Claim
177 Ed Fernandes Male 01:46:58 MV40 153 01:46:44 16 Claim
178 Nicholas Winfield Male Goodgym 01:47:01 Male Senior 154 01:46:13 129 Claim
179 ANDREW DINH Male 01:47:02 Male Senior 155 01:46:07 130 Claim
180 David Bowry Male 01:47:07 MV40 156 01:46:24 17 Claim
181 Simon Hollingsworth Male 01:47:08 Male Senior 157 01:46:10 131 Claim
182 Johnny Shik Male 01:47:25 Male Senior 158 01:46:42 132 Claim
183 Martina Habrunova Female 01:47:31 Female Senior 25 01:47:05 23 Claim
184 Chris Herlihy Male 01:47:36 Male Senior 159 01:47:07 133 Claim
185 Andrea Male 01:47:43 MV60 160 01:46:50 1 Claim
186 Alexander Milekhin Male 01:47:45 Male Senior 161 01:47:35 134 Claim
187 David Tilstone Male 01:47:53 MV50 162 01:46:51 10 Claim
188 Piers Ronan Male 01:47:55 Male Senior 163 01:47:11 135 Claim
189 Yvonne Burton Female 01:48:14 FV40 26 01:47:58 3 Claim
190 Fanny Argoud Female 01:48:17 Female Senior 27 01:47:40 24 Claim
191 Ben Slater Male 01:48:27 Male Senior 164 01:47:40 136 Claim
192 Eleanor McIntosh Female 01:48:31 Female Senior 28 01:47:50 25 Claim
193 Karim Hossain Male 01:48:33 Male Senior 165 01:48:08 137 Claim
194 Mark Watson Male 01:48:40 Male Senior 166 01:47:46 138 Claim
195 Yannig Dewyse Male 01:48:45 MV40 167 01:48:37 18 Claim
196 Sandy Dano Male 01:48:46 MV40 168 01:48:42 19 Claim
197 Sonia Nowacka Female 01:48:56 Female Senior 29 01:48:10 26 Claim
198 Matthew Kei Male 01:49:01 Male Senior 169 01:48:48 139 Claim
199 Nick Gorman Male East London Runners 01:49:03 MV50 170 01:48:48 11 Claim
200 Shailesh Vekaria Male 01:49:25 Male Senior 171 01:45:47 140 Claim
201 Will Taylor Male 01:49:36 Male Senior 172 01:48:46 141 Claim
202 Anna Weguelin Female 01:49:46 Female Senior 30 01:49:21 27 Claim
203 Vivi Andorka Female Team Bath AC 01:49:54 Female Senior 31 01:49:12 28 Claim
204 Josh Dibble Male 01:49:54 Male Senior 173 01:49:20 142 Claim
205 Marilu Isabelle Female 01:49:56 Female Senior 32 01:49:43 29 Claim
206 Alex Buckley Female 01:49:56 Female Senior 33 01:49:56 30 Claim
207 Bohdan Zacharko Male 01:49:58 Male Senior 174 01:49:03 143 Claim
208 Charlotte Jude Female 01:50:02 Female Senior 34 01:49:36 31 Claim
209 Ernie Stoddart Male London Frontrunners 01:50:23 MV50 175 01:49:29 12 Claim
210 Paul Collins Male 01:50:24 Male Senior 176 01:49:25 144 Claim
211 David Collins Male 01:50:25 Male Senior 177 01:49:27 145 Claim
212 Matt Garner Male Abel Township Survivors 01:50:27 MV40 178 01:49:55 20 Claim
213 Yassin Nahi Male 01:50:48 Male Senior 179 01:50:45 146 Claim
214 Robert Johnston Male 01:50:49 Male Senior 180 01:50:21 147 Claim
215 Charlotte Harrison Female 01:51:27 Female Senior 35 01:50:34 32 Claim
216 Kate Custis Female Petts Wood Runners 01:51:37 FV50 36 01:51:21 1 Claim
217 Phoebe Boanas Female 01:51:44 Female Senior 37 01:51:32 33 Claim
218 Yang Liu Male 01:51:49 Male Senior 181 01:51:32 148 Claim
219 David Mackey Male 01:51:52 Male Senior 182 01:50:56 149 Claim
220 Sarah Hassell Female 01:51:58 Female Senior 38 01:51:28 34 Claim
221 Joe Bell Male 01:52:50 Male Senior 183 01:52:02 150 Claim
222 Ella Calnan Female 01:52:50 Female Senior 39 01:52:43 35 Claim
223 Nicholas Gay Male 01:53:08 MV60 184 01:52:28 2 Claim
224 John O'Connell Male 01:53:08 Male Senior 185 01:52:10 151 Claim
225 Tahir Mahmood Male 01:53:20 Male Senior 186 01:52:53 152 Claim
226 Anna Brooke Female 01:53:20 Female Senior 40 01:52:29 36 Claim
227 A Ajayi Male 01:53:34 MV50 187 01:53:24 13 Claim
228 Rachana Shanbhogue Female 01:53:39 Female Senior 41 01:52:57 37 Claim
229 Gary Staines Male 01:53:47 MV50 188 01:53:05 14 Claim
230 Zuzanna Slonina Female 01:53:49 Female Senior 42 01:53:49 38 Claim
231 James McDonald Male 01:54:01 MV40 189 01:46:18 21 Claim
232 Guadalupe Alvarez Female 01:54:07 Female Senior 43 01:53:58 39 Claim
233 Daniel Perry Male 01:54:11 MV40 190 01:53:35 22 Claim
234 James Dean Male 01:54:25 Male Senior 191 01:53:22 153 Claim
235 Ben Wicker Male 01:54:26 MV50 192 01:54:17 15 Claim
236 Carlene Nicol Female 01:54:36 Female Senior 44 01:53:58 40 Claim
237 Peter Creavin Male 01:54:41 MV50 193 01:54:09 16 Claim
238 Matt Foden Female Elmbridge Road Runners 01:54:51 Female Senior 45 01:54:31 41 Claim
239 Harriet Callender Female 01:55:05 Female Senior 46 01:54:31 42 Claim
240 Kayvan Hosseini Male 01:55:08 MV40 194 01:55:08 23 Claim
241 Jessica Garcia Female 01:55:13 Female Senior 47 01:54:52 43 Claim
242 Mahfuz Male 01:55:17 Male Senior 195 01:54:18 154 Claim
243 Vojtech Balon Male 01:55:58 Male Senior 196 01:55:16 155 Claim
244 Matthew Haworth Male 01:56:02 Male Senior 197 01:55:10 156 Claim
245 Mark Callender Male 01:56:08 Male Senior 198 01:55:35 157 Claim
246 Emma Gann Female 01:56:16 Female Senior 48 01:55:34 44 Claim
247 Steve Beckitt Male 01:56:20 Male Senior 199 01:55:46 158 Claim
248 Joanna Persson Female 01:56:23 Female Senior 49 01:55:42 45 Claim
249 Sharon Armon Female 01:56:36 Female Senior 50 01:55:33 46 Claim
250 Luke Williams Male Luke 01:56:43 Male Senior 200 01:55:56 159 Claim
251 Tim Beeston Male 01:56:51 MV50 201 01:56:29 17 Claim
252 Elizabeth Bishop Female 01:56:58 FV40 51 01:56:48 4 Claim
253 Ann-Kathrin Biesinger Female 01:57:12 Female Senior 52 01:56:29 47 Claim
254 Rod Henwood Male 01:57:12 MV50 202 01:56:09 18 Claim
255 Ian Bailey Male 01:57:18 Male Senior 203 01:56:29 160 Claim
256 Richard Parsons Male 01:57:22 MV60 204 01:56:29 3 Claim
257 KEVIN KEEGAN Male 01:57:23 MV50 205 01:56:50 19 Claim
258 Garry Gabison Male 01:57:28 Male Senior 206 01:56:36 161 Claim
259 Irene Prieto Female 01:57:29 FV40 53 01:56:38 5 Claim
260 Paula Kelly Male 01:57:31 Male Senior 207 01:57:17 162 Claim
261 Jacek Goralczyk Male 01:57:38 Male Senior 208 01:56:47 163 Claim
262 Jennifer Heath-Porsz Female 01:57:41 Female Senior 54 01:57:30 48 Claim
263 Mona Mohtadi Female 01:57:44 FV40 55 01:57:33 6 Claim
264 Anna Loake Female 01:57:46 Female Senior 56 01:57:07 49 Claim
265 Julia Driffill Female 01:57:56 Female Senior 57 01:57:23 50 Claim
266 Emily Female 01:58:15 Female Senior 58 01:57:31 51 Claim
267 Nicolae Petric Male 01:58:24 Male Senior 209 01:58:21 164 Claim
268 Samiye Elif Female 01:58:44 Female Senior 59 01:57:50 52 Claim
269 Matthew Laskowski Male 01:59:05 Male Senior 210 01:58:12 165 Claim
270 Dein-sÜren Laido Male Serpentine Running Club 01:59:18 Male Senior 211 01:48:48 166 Claim
271 James Henson Male 01:59:28 Male Senior 212 01:59:02 167 Claim
272 Agi Parkhill Female 02:00:21 Female Senior 60 01:59:52 53 Claim
273 Kelly Kowal Female 02:00:27 FV40 61 02:00:01 7 Claim
274 Aliz Beko Female 02:00:41 Female Senior 62 02:00:15 54 Claim
275 Ahmet Serdar Male 02:00:55 Male Senior 213 02:00:17 168 Claim
276 Lynsey McEwan Female 02:01:04 Female Senior 63 02:00:48 55 Claim
277 Ian Wilkinson Male 02:01:07 MV50 214 02:01:00 20 Claim
278 Emily Lynch Female 02:01:10 Female Senior 64 02:00:13 56 Claim
279 Jack Burgess Male 02:01:57 Male Senior 215 01:59:46 169 Claim
280 Lucy Grant Female 02:02:27 Female Senior 65 02:01:48 57 Claim
281 Rachel Caldwell Female 02:02:34 Female Senior 66 02:01:32 58 Claim
282 Matthew Marmanillo Male 02:02:36 Male Senior 216 02:02:15 170 Claim
283 Josh Balogun-Lynch Male 02:02:39 Male Senior 217 02:02:10 171 Claim
284 Rachel Evans Female 02:02:52 Female Senior 67 02:01:48 59 Claim
285 Sophie Baker Female 02:04:45 Female Senior 68 02:02:43 60 Claim
286 Brage Bjontegaard Male 02:04:51 MV40 218 02:04:51 24 Claim
287 Ole Hukkelberg Male 02:04:51 Male Senior 219 02:04:12 172 Claim
288 Eoin Power Male 02:06:30 Male Senior 220 02:06:08 173 Claim
289 Hilde Hukkelberg Female 02:06:58 FV40 69 02:06:19 8 Claim
290 Hima Abdullah Female N/a 02:07:36 FV60 70 02:07:27 1 Claim
291 Ian Gilllman-Smith Male 02:07:50 MV50 221 02:07:50 21 Claim
292 Samir Anzur Male 02:10:35 Male Senior 222 02:10:21 174 Claim
293 Elisabetta Job Female 02:13:36 Female Senior 71 02:03:06 61 Claim
294 Walid Behlock Male 02:15:52 Male Senior 223 02:15:17 175 Claim
295 Abigail Edwards Female 02:19:50 FV40 72 02:19:27 9 Claim
296 Philip Giles Male 02:19:50 MV50 224 02:19:26 22 Claim
297 Christine French Female 02:20:36 FV40 73 02:19:54 10 Claim
298 Sally-Anne Goodman Female 02:21:23 Female Senior 74 02:20:56 62 Claim